首页
METAR-TAF:

METAR-TAF

机场 :

苏丹马慕国际机场

瓜拉登嘉楼, 马来西亚

纬度: 05-22-53N, 经度: 103-06-17E, 海拔: 6米

当前天气观测

该预报发布于1小时和19分钟前的21:00 UTC
风速2节,风向多变
温度 28°C
湿度 89%
气压 1007 hPa
能见度10公里或以上
少量云层高于2200英尺

METAR: WMKN 282100Z VRB02KT 9999 FEW022 28/26 Q1007

时间: 06:19 (22:19 UTC)

预报

该预报发布于5小时和19分钟前的17:00 UTC
预报有效从28日的 18点(UTC)到 29日的 18点(UTC)
风速3节,风向南转西南
能见度10公里或以上
少量云层高于2200英尺

TAF: WMKN 281700Z 2818/2918 21003KT 9999 FEW022

超过4000个机场的气象观测和天气预报(METAR&TAF报告)。

可查询的气象台以黄色和红色小点在地图上表示。

将鼠标移到小点上方,可查看气象台名称。

然后点击查看天气观测和预报。

如需切换地图:点击带黑十字的绿色按钮放大地图;点击带横线的绿色按钮缩小地图;或者点击绿色箭头查看邻近地区的地图。


METAR-TAF: